createdAt,value
2023-05-03T00:00:41.892Z,94943.00
2023-05-03T00:03:08.502Z,94942.19
2023-05-03T00:05:35.184Z,94939.03
2023-05-03T00:08:02.329Z,94944.03
2023-05-03T00:10:29.456Z,94935.81
2023-05-03T00:12:56.799Z,94941.22
2023-05-03T00:15:23.417Z,94937.25
2023-05-03T00:17:50.204Z,94938.34
2023-05-03T00:20:17.624Z,94944.28
2023-05-03T00:22:44.186Z,94929.97
2023-05-03T00:25:10.757Z,94936.41
2023-05-03T00:27:37.395Z,94931.75
2023-05-03T00:30:04.681Z,94933.53
2023-05-03T00:32:31.494Z,94921.97
2023-05-03T00:34:58.290Z,94928.81
2023-05-03T00:37:25.028Z,94927.53
2023-05-03T00:39:51.965Z,94928.59
2023-05-03T00:42:18.481Z,94932.88
2023-05-03T00:44:45.094Z,94934.75
2023-05-03T00:47:11.961Z,94927.22
2023-05-03T00:49:38.844Z,94920.78
2023-05-03T00:52:06.702Z,94922.19
2023-05-03T00:54:35.246Z,94918.03
2023-05-03T00:57:02.724Z,94912.19
2023-05-03T00:59:29.317Z,94922.88
2023-05-03T01:01:55.936Z,94920.00
2023-05-03T01:04:23.274Z,94918.13
2023-05-03T01:07:25.568Z,94923.78
2023-05-03T01:10:01.047Z,94918.22
2023-05-03T01:12:37.181Z,94916.16
2023-05-03T01:15:03.733Z,94925.66
2023-05-03T01:17:34.656Z,94922.19
2023-05-03T01:20:05.718Z,94920.09
2023-05-03T01:22:36.605Z,94920.69
2023-05-03T01:25:08.021Z,94916.25
2023-05-03T01:27:34.854Z,94921.69
2023-05-03T01:30:03.136Z,94913.41
2023-05-03T01:32:36.827Z,94914.78
2023-05-03T01:35:11.616Z,94914.78
2023-05-03T01:37:39.273Z,94919.31
2023-05-03T01:40:10.349Z,94926.34
2023-05-03T01:42:38.623Z,94924.53
2023-05-03T01:45:05.510Z,94924.63
2023-05-03T01:47:32.615Z,94920.69
2023-05-03T01:49:59.298Z,94919.13
2023-05-03T01:52:25.975Z,94916.44
2023-05-03T01:54:52.479Z,94921.00
2023-05-03T01:57:19.003Z,94911.56
2023-05-03T01:59:45.594Z,94908.63
2023-05-03T02:02:12.143Z,94911.28
2023-05-03T02:04:40.857Z,94913.94
2023-05-03T02:07:07.593Z,94909.63
2023-05-03T02:09:34.157Z,94906.06
2023-05-03T02:12:00.943Z,94907.72
2023-05-03T02:14:28.438Z,94910.69
2023-05-03T02:16:55.796Z,94911.28
2023-05-03T02:19:22.496Z,94908.22
2023-05-03T02:21:49.115Z,94908.03
2023-05-03T02:24:16.628Z,94902.47
2023-05-03T02:26:43.171Z,94908.09
2023-05-03T02:29:10.219Z,94909.97
2023-05-03T02:31:36.929Z,94902.47
2023-05-03T02:34:04.398Z,94904.56
2023-05-03T02:36:31.215Z,94905.66
2023-05-03T02:39:00.383Z,94914.44
2023-05-03T02:41:27.208Z,94907.44
2023-05-03T02:43:53.907Z,94902.09
2023-05-03T02:46:20.609Z,94897.13
2023-05-03T02:48:47.167Z,94897.13
2023-05-03T02:51:13.990Z,94896.34
2023-05-03T02:53:40.712Z,94907.59
2023-05-03T02:56:07.571Z,94908.97
2023-05-03T02:58:34.301Z,94908.97
2023-05-03T03:01:03.083Z,94906.03
2023-05-03T03:03:30.615Z,94908.91
2023-05-03T03:05:57.233Z,94904.34
2023-05-03T03:08:23.931Z,94900.91
2023-05-03T03:10:51.041Z,94901.97
2023-05-03T03:13:17.642Z,94911.38
2023-05-03T03:15:44.277Z,94910.56
2023-05-03T03:18:11.052Z,94905.03
2023-05-03T03:20:37.634Z,94904.72
2023-05-03T03:23:04.185Z,94909.78
2023-05-03T03:25:31.714Z,94906.94
2023-05-03T03:27:58.716Z,94910.75
2023-05-03T03:30:25.876Z,94912.28
2023-05-03T03:33:12.370Z,94911.88
2023-05-03T03:35:41.280Z,94912.56
2023-05-03T03:38:08.758Z,94914.38
2023-05-03T03:40:39.978Z,94914.38
2023-05-03T03:43:06.539Z,94914.38
2023-05-03T03:45:33.196Z,94922.38
2023-05-03T03:48:00.717Z,94913.06
2023-05-03T03:50:27.956Z,94918.91
2023-05-03T03:52:54.561Z,94913.28
2023-05-03T03:55:21.246Z,94913.56
2023-05-03T03:57:49.803Z,94915.44
2023-05-03T04:00:16.797Z,94911.50
2023-05-03T04:02:49.532Z,94911.00
2023-05-03T04:05:18.134Z,94911.06
2023-05-03T04:07:45.982Z,94916.41
2023-05-03T04:10:13.968Z,94916.41
2023-05-03T04:12:41.228Z,94907.81
2023-05-03T04:15:08.195Z,94916.91
2023-05-03T04:17:35.873Z,94911.88
2023-05-03T04:20:11.076Z,94922.03
2023-05-03T04:22:40.505Z,94924.22
2023-05-03T04:25:10.930Z,94926.88
2023-05-03T04:27:38.392Z,94925.63
2023-05-03T04:30:06.639Z,94930.75
2023-05-03T04:32:37.792Z,94935.56
2023-05-03T04:35:10.868Z,94930.03
2023-05-03T04:37:39.459Z,94935.44
2023-05-03T04:40:12.396Z,94934.16
2023-05-03T04:42:43.790Z,94927.72
2023-05-03T04:45:10.985Z,94937.81
2023-05-03T04:47:37.691Z,94937.97
2023-05-03T04:50:04.665Z,94943.09
2023-05-03T04:52:31.960Z,94942.16
2023-05-03T04:54:58.480Z,94943.16
2023-05-03T04:57:25.909Z,94947.78
2023-05-03T04:59:54.154Z,94949.78
2023-05-03T05:02:21.734Z,94955.22
2023-05-03T05:04:48.639Z,94954.63
2023-05-03T05:07:15.563Z,94955.03
2023-05-03T05:09:44.243Z,94960.28
2023-05-03T05:12:11.255Z,94963.25
2023-05-03T05:14:40.874Z,94957.13
2023-05-03T05:17:08.508Z,94962.06
2023-05-03T05:19:35.945Z,94968.00
2023-05-03T05:22:02.591Z,94964.59
2023-05-03T05:24:41.351Z,94971.03
2023-05-03T05:27:09.258Z,94971.22
2023-05-03T05:29:36.112Z,94979.69
2023-05-03T05:32:05.387Z,94985.72
2023-05-03T05:34:42.109Z,94989.94
2023-05-03T05:37:12.647Z,94983.75
2023-05-03T05:39:39.407Z,94983.66
2023-05-03T05:42:06.171Z,94977.13
2023-05-03T05:44:32.945Z,94984.16
2023-05-03T05:46:59.652Z,94994.00
2023-05-03T05:49:26.525Z,94984.53
2023-05-03T05:51:53.040Z,94982.13
2023-05-03T05:54:19.804Z,94982.63
2023-05-03T05:56:46.609Z,94990.25
2023-05-03T05:59:13.296Z,94989.84
2023-05-03T06:01:44.628Z,95006.72
2023-05-03T06:04:12.509Z,94993.69
2023-05-03T06:06:40.103Z,94996.03
2023-05-03T06:09:13.272Z,94999.97
2023-05-03T06:11:52.164Z,94996.34
2023-05-03T06:14:20.690Z,94996.84
2023-05-03T06:16:47.902Z,94998.69
2023-05-03T06:19:14.999Z,94995.97
2023-05-03T06:21:41.539Z,95001.88
2023-05-03T06:24:08.181Z,95003.69
2023-05-03T06:26:34.783Z,95008.13
2023-05-03T06:29:02.890Z,95003.13
2023-05-03T06:31:30.098Z,95005.44
2023-05-03T06:33:57.787Z,95004.81
2023-05-03T06:36:25.948Z,95000.56
2023-05-03T06:38:52.488Z,95006.19
2023-05-03T06:41:19.006Z,95003.41
2023-05-03T06:43:45.728Z,94998.38
2023-05-03T06:46:13.225Z,95002.72
2023-05-03T06:48:39.908Z,95004.94
2023-05-03T06:51:06.567Z,94998.06
2023-05-03T06:53:33.114Z,94996.00
2023-05-03T06:55:59.859Z,94993.91
2023-05-03T06:58:26.397Z,94996.97
2023-05-03T07:00:54.040Z,94993.94
2023-05-03T07:03:21.154Z,94995.69
2023-05-03T07:05:48.235Z,94988.16
2023-05-03T07:08:14.782Z,94989.53
2023-05-03T07:10:41.951Z,94991.34
2023-05-03T07:13:08.608Z,94991.44
2023-05-03T07:15:35.302Z,94994.34
2023-05-03T07:18:01.891Z,94996.69
2023-05-03T07:20:28.621Z,94990.38
2023-05-03T07:22:55.162Z,94995.22
2023-05-03T07:25:21.726Z,94987.69
2023-05-03T07:27:48.275Z,94993.31
2023-05-03T07:30:14.897Z,94993.59
2023-05-03T07:32:41.545Z,95001.94
2023-05-03T07:35:08.351Z,94985.69
2023-05-03T07:37:34.902Z,94983.00
2023-05-03T07:40:01.729Z,94984.41
2023-05-03T07:42:28.589Z,94990.47
2023-05-03T07:44:55.535Z,94988.50
2023-05-03T07:47:22.448Z,94989.97
2023-05-03T07:49:50.886Z,94987.81
2023-05-03T07:52:18.059Z,94988.16
2023-05-03T07:54:45.915Z,94984.03
2023-05-03T07:57:16.414Z,94983.00
2023-05-03T07:59:43.469Z,94980.66
2023-05-03T08:02:10.311Z,94965.72
2023-05-03T08:04:38.062Z,94970.25
2023-05-03T08:07:04.775Z,94968.69
2023-05-03T08:09:31.338Z,94962.31
2023-05-03T08:11:57.941Z,94968.16
2023-05-03T08:14:24.578Z,94973.44
2023-05-03T08:16:51.528Z,94967.31
2023-05-03T08:19:18.052Z,94965.91
2023-05-03T08:21:44.595Z,94970.69
2023-05-03T08:24:12.056Z,94969.09
2023-05-03T08:26:40.809Z,94966.25
2023-05-03T08:29:07.585Z,94971.09
2023-05-03T08:31:34.931Z,94982.03
2023-05-03T08:34:01.722Z,94974.91
2023-05-03T08:36:28.248Z,94985.03
2023-05-03T08:38:54.805Z,94985.47
2023-05-03T08:41:30.509Z,94984.31
2023-05-03T08:43:58.244Z,94989.50
2023-05-03T08:46:28.311Z,94985.84
2023-05-03T08:48:55.507Z,94989.34
2023-05-03T08:51:22.820Z,94992.16
2023-05-03T08:53:50.110Z,94995.50
2023-05-03T08:56:21.340Z,94991.72
2023-05-03T08:58:47.903Z,94998.50
2023-05-03T09:01:14.594Z,95000.69
2023-05-03T09:03:49.700Z,94996.69
2023-05-03T09:06:20.502Z,95000.16
2023-05-03T09:08:47.086Z,95004.63
2023-05-03T09:11:25.865Z,95002.00
2023-05-03T09:13:53.178Z,95005.69
2023-05-03T09:16:23.981Z,95000.47
2023-05-03T09:19:00.808Z,95003.34
2023-05-03T09:21:28.239Z,94996.34
2023-05-03T09:23:54.887Z,95001.69
2023-05-03T09:26:47.873Z,95006.03
2023-05-03T09:29:31.134Z,94999.91
2023-05-03T09:31:59.614Z,95006.56
2023-05-03T09:34:26.230Z,95007.22
2023-05-03T09:36:52.862Z,95006.13
2023-05-03T09:39:19.949Z,94995.63
2023-05-03T09:41:46.900Z,95002.97
2023-05-03T09:44:13.669Z,95002.94
2023-05-03T09:46:40.219Z,95003.09
2023-05-03T09:49:06.904Z,95001.06
2023-05-03T09:51:33.714Z,94999.50
2023-05-03T09:54:00.443Z,94994.06
2023-05-03T09:56:27.044Z,94998.78
2023-05-03T09:58:54.448Z,94997.47
2023-05-03T10:01:23.968Z,94996.09
2023-05-03T10:03:57.532Z,94987.91
2023-05-03T10:06:25.153Z,94993.81
2023-05-03T10:08:57.775Z,94992.63
2023-05-03T10:11:26.845Z,94987.59
2023-05-03T10:13:54.032Z,94987.06
2023-05-03T10:16:22.383Z,94988.78
2023-05-03T10:19:00.271Z,94981.53
2023-05-03T10:21:35.370Z,94982.84
2023-05-03T10:24:13.028Z,94983.00
2023-05-03T10:26:45.187Z,94977.13
2023-05-03T10:29:30.637Z,94975.53
2023-05-03T10:31:57.283Z,94979.03
2023-05-03T10:34:24.725Z,94976.75
2023-05-03T10:36:53.372Z,94974.84
2023-05-03T10:39:20.609Z,94970.91
2023-05-03T10:42:03.499Z,94963.47
2023-05-03T10:44:41.202Z,94969.75
2023-05-03T10:47:11.567Z,94958.03
2023-05-03T10:49:38.187Z,94962.84
2023-05-03T10:52:24.644Z,94965.38
2023-05-03T10:54:51.198Z,94971.47
2023-05-03T10:57:17.972Z,94972.47
2023-05-03T10:59:49.170Z,94966.56
2023-05-03T11:02:22.732Z,94969.09
2023-05-03T11:04:50.170Z,94973.88
2023-05-03T11:07:21.612Z,94962.19
2023-05-03T11:09:48.323Z,94965.94
2023-05-03T11:12:14.917Z,94962.63
2023-05-03T11:14:41.956Z,94966.41
2023-05-03T11:17:08.574Z,94959.06
2023-05-03T11:19:35.394Z,94958.16
2023-05-03T11:22:02.156Z,94954.88
2023-05-03T11:24:28.800Z,94942.81
2023-05-03T11:26:55.496Z,94949.56
2023-05-03T11:29:24.047Z,94958.56
2023-05-03T11:31:51.706Z,94950.91
2023-05-03T11:34:18.670Z,94954.75
2023-05-03T11:36:45.309Z,94956.41
2023-05-03T11:39:13.174Z,94953.28
2023-05-03T11:41:39.828Z,94947.75
2023-05-03T11:44:15.909Z,94941.84
2023-05-03T11:46:44.639Z,94941.84
2023-05-03T11:49:17.010Z,94941.00
2023-05-03T11:51:46.478Z,94939.50
2023-05-03T11:56:47.466Z,94940.38
2023-05-03T11:59:14.105Z,94939.75
2023-05-03T12:01:41.536Z,94938.59
2023-05-03T12:06:18.129Z,94934.63
2023-05-03T12:08:45.442Z,94938.97
2023-05-03T12:11:13.967Z,94927.28
2023-05-03T12:13:41.741Z,94918.72
2023-05-03T12:16:14.232Z,94926.78
2023-05-03T12:18:56.148Z,94921.25
2023-05-03T12:23:57.419Z,94917.59
2023-05-03T12:26:26.450Z,94916.28
2023-05-03T12:28:56.143Z,94897.19
2023-05-03T12:31:24.078Z,94899.94
2023-05-03T12:36:24.493Z,94892.91
2023-05-03T12:38:56.051Z,94895.59
2023-05-03T12:43:58.916Z,94894.94
2023-05-03T12:46:34.571Z,94900.69
2023-05-03T12:49:06.424Z,94893.81
2023-05-03T12:51:34.222Z,94898.69
2023-05-03T12:54:02.126Z,94882.56
2023-05-03T12:56:32.537Z,94873.31
2023-05-03T12:59:27.760Z,94886.03
2023-05-03T13:02:41.570Z,94876.53
2023-05-03T13:04:57.079Z,94871.75
2023-05-03T13:07:29.550Z,94874.34
2023-05-03T13:12:27.602Z,94872.00
2023-05-03T13:14:58.047Z,94862.16
2023-05-03T13:17:25.135Z,94864.63
2023-05-03T13:19:52.608Z,94864.66
2023-05-03T13:22:19.376Z,94865.13
2023-05-03T13:24:47.340Z,94863.72
2023-05-03T13:27:15.303Z,94861.78
2023-05-03T13:29:42.401Z,94844.97
2023-05-03T13:32:09.713Z,94845.50
2023-05-03T13:34:36.810Z,94848.47
2023-05-03T13:37:06.910Z,94862.47
2023-05-03T13:39:33.624Z,94866.09
2023-05-03T13:42:00.403Z,94868.13
2023-05-03T13:44:27.078Z,94840.38
2023-05-03T13:46:53.909Z,94845.78
2023-05-03T13:49:21.049Z,94836.94
2023-05-03T13:51:48.176Z,94844.16
2023-05-03T13:54:14.884Z,94853.97
2023-05-03T13:56:43.105Z,94844.31
2023-05-03T13:59:12.352Z,94837.91
2023-05-03T14:01:39.601Z,94823.09
2023-05-03T14:04:06.710Z,94826.56
2023-05-03T14:06:33.947Z,94837.22
2023-05-03T14:09:01.960Z,94828.38
2023-05-03T14:11:30.612Z,94830.84
2023-05-03T14:13:58.776Z,94828.66
2023-05-03T14:16:39.937Z,94830.56
2023-05-03T14:19:10.469Z,94828.38
2023-05-03T14:21:38.031Z,94830.78
2023-05-03T14:24:06.655Z,94828.63
2023-05-03T14:26:34.314Z,94822.75
2023-05-03T14:29:01.597Z,94834.03
2023-05-03T14:31:28.405Z,94829.31
2023-05-03T14:33:55.299Z,94834.13
2023-05-03T14:36:22.173Z,94835.88
2023-05-03T14:38:49.048Z,94843.66
2023-05-03T14:41:15.724Z,94829.31
2023-05-03T14:43:42.465Z,94823.47
2023-05-03T14:46:10.151Z,94819.19
2023-05-03T14:48:38.249Z,94816.47
2023-05-03T14:51:05.661Z,94815.00
2023-05-03T14:53:32.639Z,94825.34
2023-05-03T14:55:59.644Z,94824.78
2023-05-03T14:58:26.395Z,94822.66
2023-05-03T15:00:53.304Z,94823.75
2023-05-03T15:03:20.064Z,94822.47
2023-05-03T15:05:48.554Z,94825.66
2023-05-03T15:08:19.331Z,94820.16
2023-05-03T15:10:47.827Z,94811.88
2023-05-03T15:13:16.351Z,94812.47
2023-05-03T15:15:43.824Z,94810.91
2023-05-03T15:18:11.230Z,94814.94
2023-05-03T15:20:38.862Z,94800.91
2023-05-03T15:23:06.217Z,94808.69
2023-05-03T15:25:33.209Z,94801.41
2023-05-03T15:28:03.618Z,94798.13
2023-05-03T15:30:31.691Z,94796.91
2023-05-03T15:32:58.484Z,94792.69
2023-05-03T15:35:25.217Z,94783.88
2023-05-03T15:37:52.234Z,94789.91
2023-05-03T15:40:20.550Z,94796.47
2023-05-03T15:42:47.304Z,94798.06
2023-05-03T15:45:14.063Z,94791.09
2023-05-03T15:47:40.940Z,94791.09
2023-05-03T15:50:08.763Z,94782.81
2023-05-03T15:52:35.905Z,94791.28
2023-05-03T15:55:03.069Z,94795.41
2023-05-03T15:57:30.482Z,94793.22
2023-05-03T15:59:57.508Z,94792.41
2023-05-03T16:02:24.415Z,94805.88
2023-05-03T16:04:51.231Z,94795.44
2023-05-03T16:07:18.386Z,94811.00
2023-05-03T16:09:46.225Z,94812.47
2023-05-03T16:12:12.856Z,94808.59
2023-05-03T16:14:40.046Z,94812.63
2023-05-03T16:17:06.872Z,94800.25
2023-05-03T16:19:33.782Z,94793.88
2023-05-03T16:22:00.751Z,94796.31
2023-05-03T16:24:28.482Z,94774.94
2023-05-03T16:26:55.438Z,94784.38
2023-05-03T16:29:22.354Z,94782.63
2023-05-03T16:31:49.600Z,94770.66
2023-05-03T16:34:16.811Z,94772.94
2023-05-03T16:36:44.161Z,94766.50
2023-05-03T16:39:14.891Z,94762.31
2023-05-03T16:41:41.723Z,94767.31
2023-05-03T16:44:08.932Z,94748.06
2023-05-03T16:46:37.941Z,94749.28
2023-05-03T16:49:05.611Z,94770.06
2023-05-03T16:51:32.980Z,94757.34
2023-05-03T16:54:01.131Z,94776.09
2023-05-03T16:56:30.823Z,94773.56
2023-05-03T16:58:59.060Z,94781.56
2023-05-03T17:01:26.432Z,94776.75
2023-05-03T17:03:53.566Z,94788.97
2023-05-03T17:06:20.380Z,94778.56
2023-05-03T17:08:47.145Z,94784.53
2023-05-03T17:11:14.729Z,94786.47
2023-05-03T17:13:42.002Z,94773.94
2023-05-03T17:16:11.590Z,94788.00
2023-05-03T17:18:40.451Z,94780.91
2023-05-03T17:21:08.597Z,94770.47
2023-05-03T17:23:38.029Z,94769.78
2023-05-03T17:26:07.082Z,94781.81
2023-05-03T17:28:34.371Z,94785.63
2023-05-03T17:31:02.656Z,94781.03
2023-05-03T17:33:29.824Z,94779.56
2023-05-03T17:35:57.004Z,94783.03
2023-05-03T17:38:23.952Z,94777.19
2023-05-03T17:40:50.778Z,94770.66
2023-05-03T17:43:17.954Z,94779.91
2023-05-03T17:45:45.905Z,94779.91
2023-05-03T17:48:12.979Z,94776.13
2023-05-03T17:50:39.972Z,94777.00
2023-05-03T17:53:07.099Z,94770.38
2023-05-03T17:55:40.412Z,94776.22
2023-05-03T17:58:07.248Z,94773.91
2023-05-03T18:00:34.030Z,94764.72
2023-05-03T18:03:01.417Z,94771.13
2023-05-03T18:05:28.584Z,94779.38
2023-05-03T18:07:55.383Z,94770.63
2023-05-03T18:10:22.496Z,94778.25
2023-05-03T18:12:49.383Z,94783.31
2023-05-03T18:15:16.325Z,94787.81
2023-05-03T18:17:43.539Z,94779.19
2023-05-03T18:20:10.981Z,94776.16
2023-05-03T18:22:38.002Z,94782.47
2023-05-03T18:25:07.524Z,94781.22
2023-05-03T18:27:36.854Z,94777.63
2023-05-03T18:30:06.469Z,94790.22
2023-05-03T18:32:33.840Z,94785.03
2023-05-03T18:35:01.090Z,94790.97
2023-05-03T18:37:27.894Z,94785.75
2023-05-03T18:39:54.665Z,94787.44
2023-05-03T18:42:22.543Z,94787.16
2023-05-03T18:44:49.581Z,94795.81
2023-05-03T18:47:20.640Z,94794.50
2023-05-03T18:49:51.742Z,94792.69
2023-05-03T18:52:22.700Z,94791.00
2023-05-03T18:54:49.817Z,94792.16
2023-05-03T18:57:16.805Z,94802.09
2023-05-03T18:59:56.741Z,94803.88
2023-05-03T19:02:30.618Z,94800.53
2023-05-03T19:04:58.202Z,94810.97
2023-05-03T19:07:25.233Z,94807.34
2023-05-03T19:09:58.487Z,94808.28
2023-05-03T19:12:25.545Z,94803.75
2023-05-03T19:14:52.360Z,94795.16
2023-05-03T19:17:19.146Z,94809.13
2023-05-03T19:19:45.773Z,94816.13
2023-05-03T19:22:12.453Z,94806.06
2023-05-03T19:24:39.918Z,94814.00
2023-05-03T19:27:06.599Z,94814.28
2023-05-03T19:29:33.357Z,94805.19
2023-05-03T19:31:59.993Z,94818.16
2023-05-03T19:34:28.034Z,94825.28
2023-05-03T19:36:54.831Z,94799.88
2023-05-03T19:39:21.691Z,94822.63
2023-05-03T19:41:48.932Z,94818.75
2023-05-03T19:44:16.067Z,94816.56
2023-05-03T19:46:42.880Z,94824.47
2023-05-03T19:49:09.568Z,94820.84
2023-05-03T19:51:36.260Z,94814.25
2023-05-03T19:54:03.290Z,94829.38
2023-05-03T19:56:30.031Z,94820.41
2023-05-03T19:58:57.305Z,94821.84
2023-05-03T20:01:24.195Z,94829.41
2023-05-03T20:03:53.462Z,94821.38
2023-05-03T20:06:20.667Z,94818.84
2023-05-03T20:08:47.376Z,94823.75
2023-05-03T20:11:14.177Z,94831.66
2023-05-03T20:13:40.819Z,94823.00
2023-05-03T20:16:08.334Z,94822.69
2023-05-03T20:18:35.196Z,94818.13
2023-05-03T20:21:03.360Z,94823.81
2023-05-03T20:23:30.103Z,94820.53
2023-05-03T20:25:57.106Z,94818.28
2023-05-03T20:28:24.021Z,94816.13
2023-05-03T20:30:50.918Z,94820.38
2023-05-03T20:33:17.578Z,94813.28
2023-05-03T20:35:44.498Z,94811.22
2023-05-03T20:38:11.456Z,94797.53
2023-05-03T20:40:38.419Z,94814.06
2023-05-03T20:43:05.087Z,94808.84
2023-05-03T20:45:31.963Z,94805.84
2023-05-03T20:47:58.805Z,94810.75
2023-05-03T20:50:25.619Z,94814.06
2023-05-03T20:52:52.264Z,94798.91
2023-05-03T20:55:19.074Z,94795.78
2023-05-03T20:57:45.859Z,94789.00
2023-05-03T21:00:13.151Z,94795.94
2023-05-03T21:02:39.989Z,94809.53
2023-05-03T21:05:07.093Z,94802.88
2023-05-03T21:07:33.763Z,94805.09
2023-05-03T21:10:00.564Z,94804.47
2023-05-03T21:12:29.041Z,94811.72
2023-05-03T21:14:55.749Z,94805.13
2023-05-03T21:17:22.556Z,94806.84
2023-05-03T21:19:49.241Z,94813.31
2023-05-03T21:22:16.439Z,94828.47
2023-05-03T21:24:43.128Z,94816.00
2023-05-03T21:27:09.967Z,94820.38
2023-05-03T21:29:37.014Z,94812.03
2023-05-03T21:32:04.305Z,94816.16
2023-05-03T21:34:31.108Z,94827.03
2023-05-03T21:36:57.800Z,94807.00
2023-05-03T21:39:24.513Z,94805.28
2023-05-03T21:41:51.191Z,94814.75
2023-05-03T21:44:18.721Z,94802.13
2023-05-03T21:46:45.435Z,94808.72
2023-05-03T21:49:12.186Z,94808.91
2023-05-03T21:51:38.836Z,94810.63
2023-05-03T21:54:05.924Z,94793.91
2023-05-03T21:56:32.640Z,94797.38
2023-05-03T21:58:59.659Z,94800.22
2023-05-03T22:01:26.357Z,94797.06
2023-05-03T22:03:53.348Z,94794.06
2023-05-03T22:06:20.247Z,94790.44
2023-05-03T22:08:47.737Z,94786.16
2023-05-03T22:11:14.413Z,94786.63
2023-05-03T22:13:54.553Z,94773.38
2023-05-03T22:16:25.891Z,94777.66
2023-05-03T22:18:52.715Z,94778.13
2023-05-03T22:21:19.353Z,94774.81
2023-05-03T22:23:46.119Z,94781.91
2023-05-03T22:26:12.774Z,94780.66
2023-05-03T22:28:39.404Z,94768.97
2023-05-03T22:31:06.342Z,94767.38
2023-05-03T22:33:33.042Z,94781.44
2023-05-03T22:35:59.697Z,94779.53
2023-05-03T22:38:26.310Z,94789.31
2023-05-03T22:40:53.014Z,94772.13
2023-05-03T22:43:19.756Z,94768.66
2023-05-03T22:45:47.225Z,94774.16
2023-05-03T22:48:13.980Z,94769.75
2023-05-03T22:50:40.655Z,94772.09
2023-05-03T22:53:07.314Z,94772.09
2023-05-03T22:55:34.018Z,94785.03
2023-05-03T22:58:01.050Z,94767.88
2023-05-03T23:00:28.096Z,94774.00
2023-05-03T23:02:54.825Z,94768.63
2023-05-03T23:05:21.915Z,94778.09
2023-05-03T23:07:48.771Z,94767.06
2023-05-03T23:10:15.445Z,94765.81
2023-05-03T23:12:42.248Z,94765.94
2023-05-03T23:15:09.191Z,94767.53
2023-05-03T23:17:35.868Z,94770.84
2023-05-03T23:20:03.096Z,94767.50
2023-05-03T23:22:30.031Z,94759.16
2023-05-03T23:24:56.717Z,94765.16
2023-05-03T23:27:23.479Z,94760.59
2023-05-03T23:29:50.874Z,94767.03
2023-05-03T23:32:17.988Z,94760.25
2023-05-03T23:34:45.048Z,94761.50
2023-05-03T23:37:11.693Z,94753.78
2023-05-03T23:39:42.989Z,94758.34
2023-05-03T23:42:09.876Z,94747.16
2023-05-03T23:44:52.977Z,94744.47
2023-05-03T23:47:21.560Z,94747.00
2023-05-03T23:49:48.274Z,94747.94
2023-05-03T23:52:16.970Z,94757.72
2023-05-03T23:54:43.639Z,94754.88
2023-05-03T23:57:10.332Z,94744.16
2023-05-03T23:59:37.011Z,94750.59
